Time;durP1;ratioP1;P1;durP2;ratioP2;P2;SDS_P1;SDS_P2;PMS_P1;PMS_P2;Temp;Humidity;BMP_temperature;BMP_pressure;BME280_temperature;BME280_humidity;BME280_pressure;Samples;Min_cycle;Max_cycle;Signal;HPM_P1;HPM_P2
2022/04/03 00:00:11;;;;;;;4.13;3.77;;;4.20;97.10;;;;;;5034404;28;20418;-68
2022/04/03 00:02:37;;;;;;;3.47;3.17;;;4.20;97.10;;;;;;5035296;28;20461;-68
2022/04/03 00:05:04;;;;;;;4.83;3.27;;;4.20;97.10;;;;;;5034548;28;20920;-68
2022/04/03 00:07:29;;;;;;;3.60;3.30;;;4.20;97.40;;;;;;5034547;28;20271;-67
2022/04/03 00:09:55;;;;;;;5.33;4.67;;;4.20;97.20;;;;;;5033921;28;20826;-67
2022/04/03 00:12:20;;;;;;;4.13;3.73;;;4.20;97.20;;;;;;5033779;28;20621;-68
2022/04/03 00:14:46;;;;;;;4.93;4.40;;;4.20;97.20;;;;;;5034315;28;20210;-69
2022/04/03 00:17:11;;;;;;;4.40;4.00;;;4.20;97.60;;;;;;5033151;28;20187;-68
2022/04/03 00:19:38;;;;;;;4.73;3.97;;;4.20;98.10;;;;;;5034037;28;20183;-70
2022/04/03 00:22:03;;;;;;;4.23;3.93;;;4.20;98.30;;;;;;5034509;28;20182;-69
2022/04/03 00:24:29;;;;;;;8.70;3.90;;;4.20;98.30;;;;;;5035501;28;20446;-67
2022/04/03 00:26:55;;;;;;;6.93;4.00;;;4.20;98.40;;;;;;5032426;28;20185;-67
2022/04/03 00:29:20;;;;;;;4.23;3.83;;;4.20;98.40;;;;;;5033924;28;20177;-68
2022/04/03 00:31:46;;;;;;;3.93;3.53;;;4.20;98.40;;;;;;5033744;28;20575;-67
2022/04/03 00:34:11;;;;;;;4.90;3.50;;;4.20;98.30;;;;;;5034733;28;20269;-67
2022/04/03 00:36:37;;;;;;;5.03;4.07;;;4.10;98.40;;;;;;5041272;28;20264;-67
2022/04/03 00:39:03;;;;;;;5.90;3.67;;;4.10;98.60;;;;;;5057095;28;20545;-67
2022/04/03 00:41:28;;;;;;;3.83;3.20;;;4.10;98.70;;;;;;5053617;28;20197;-68
2022/04/03 00:43:54;;;;;;;5.93;4.13;;;4.20;98.70;;;;;;5054002;28;20448;-68
2022/04/03 00:46:21;;;;;;;4.20;3.70;;;4.20;98.80;;;;;;5053734;28;20177;-68
2022/04/03 00:48:47;;;;;;;8.13;4.10;;;4.20;98.70;;;;;;5051996;28;20457;-68
2022/04/03 00:51:14;;;;;;;4.60;4.13;;;4.10;98.70;;;;;;5053349;28;20423;-67
2022/04/03 00:53:39;;;;;;;5.00;4.50;;;4.10;98.70;;;;;;5053371;28;20426;-67
2022/04/03 00:56:05;;;;;;;4.23;3.83;;;4.10;99.00;;;;;;5053217;28;20461;-67
2022/04/03 00:58:31;;;;;;;5.33;4.07;;;4.00;98.60;;;;;;5051281;28;20243;-68
2022/04/03 01:00:57;;;;;;;4.47;4.03;;;3.90;98.90;;;;;;5052949;28;20928;-67
2022/04/03 01:03:23;;;;;;;3.60;3.30;;;3.90;98.90;;;;;;5051574;28;20439;-67
2022/04/03 01:05:48;;;;;;;5.47;4.70;;;3.90;99.20;;;;;;5053036;28;20291;-67
2022/04/03 01:08:18;;;;;;;5.40;4.00;;;3.90;99.10;;;;;;5051253;28;20195;-67
2022/04/03 01:10:43;;;;;;;4.63;3.63;;;3.90;98.90;;;;;;5052825;28;20189;-67
2022/04/03 01:13:10;;;;;;;4.23;3.83;;;3.90;98.80;;;;;;5052660;28;20531;-68
2022/04/03 01:15:36;;;;;;;3.93;3.53;;;4.00;98.80;;;;;;5053216;28;20216;-67
2022/04/03 01:18:01;;;;;;;4.47;3.97;;;4.00;98.90;;;;;;5051127;28;20503;-68
2022/04/03 01:20:27;;;;;;;3.60;3.40;;;3.90;98.70;;;;;;5053221;28;20540;-67
2022/04/03 01:22:52;;;;;;;3.80;3.40;;;4.00;98.70;;;;;;5052735;28;20208;-68
2022/04/03 01:25:18;;;;;;;4.00;3.70;;;4.00;98.70;;;;;;5052773;28;20647;-68
2022/04/03 01:27:43;;;;;;;5.17;3.70;;;4.00;98.60;;;;;;5052761;28;20228;-67
2022/04/03 01:30:12;;;;;;;3.70;3.40;;;4.00;98.40;;;;;;5050915;28;20174;-67
2022/04/03 01:32:39;;;;;;;4.17;3.87;;;3.90;98.40;;;;;;5052666;28;20190;-67
2022/04/03 01:35:05;;;;;;;4.57;3.70;;;3.90;98.60;;;;;;5052912;28;20814;-67
2022/04/03 01:37:30;;;;;;;3.73;3.43;;;3.80;98.70;;;;;;5052187;28;20440;-68
2022/04/03 01:39:56;;;;;;;5.20;4.10;;;3.80;98.80;;;;;;5050526;28;20499;-67
2022/04/03 01:42:21;;;;;;;4.13;3.80;;;3.80;99.00;;;;;;5052534;28;20221;-69
2022/04/03 01:44:47;;;;;;;4.87;4.13;;;3.90;99.10;;;;;;5052480;28;20182;-68
2022/04/03 01:47:12;;;;;;;4.20;3.73;;;3.90;99.10;;;;;;5052366;28;20218;-68
2022/04/03 01:49:38;;;;;;;3.97;3.60;;;3.90;99.10;;;;;;5050230;28;20166;-67
2022/04/03 01:52:04;;;;;;;3.83;3.53;;;3.90;99.00;;;;;;5052160;28;20217;-68
2022/04/03 01:54:30;;;;;;;5.50;3.90;;;3.90;98.90;;;;;;5052268;28;20251;-68
2022/04/03 01:56:55;;;;;;;4.23;3.83;;;4.00;99.00;;;;;;5052293;28;20494;-67
2022/04/03 01:59:21;;;;;;;5.43;3.63;;;3.90;98.80;;;;;;5051755;28;20185;-67
2022/04/03 02:01:47;;;;;;;5.33;3.97;;;4.00;98.90;;;;;;5049565;28;20173;-67
2022/04/03 02:04:13;;;;;;;9.00;4.10;;;4.00;99.00;;;;;;5055935;28;20438;-69
2022/04/03 02:06:40;;;;;;;3.93;3.60;;;3.90;99.00;;;;;;5052236;28;20479;-68
2022/04/03 02:09:07;;;;;;;3.93;3.53;;;3.80;98.80;;;;;;5052375;28;20440;-68
2022/04/03 02:11:36;;;;;;;4.17;3.77;;;3.70;99.10;;;;;;5050811;28;20427;-67
2022/04/03 02:14:02;;;;;;;4.90;3.60;;;3.70;99.20;;;;;;5051983;28;20451;-67
2022/04/03 02:16:27;;;;;;;5.13;4.07;;;3.70;99.30;;;;;;5052048;28;20753;-67
2022/04/03 02:18:53;;;;;;;4.63;4.23;;;3.80;99.30;;;;;;5052090;28;20410;-68
2022/04/03 02:21:18;;;;;;;4.10;3.70;;;3.80;99.20;;;;;;5051742;28;20174;-67
2022/04/03 02:23:44;;;;;;;4.50;4.10;;;3.90;99.10;;;;;;5050395;28;20224;-68
2022/04/03 02:26:09;;;;;;;5.40;4.47;;;3.80;99.10;;;;;;5052698;28;20171;-68
2022/04/03 02:28:36;;;;;;;4.90;3.73;;;3.90;99.30;;;;;;5052660;28;20210;-68
2022/04/03 02:31:02;;;;;;;4.03;3.63;;;3.90;99.40;;;;;;5049581;28;20618;-67
2022/04/03 02:33:27;;;;;;;4.53;3.90;;;3.90;99.20;;;;;;5051551;28;20446;-66
2022/04/03 02:35:53;;;;;;;3.70;3.40;;;3.80;99.20;;;;;;5051088;28;20322;-68
2022/04/03 02:38:18;;;;;;;17.17;5.40;;;3.90;99.30;;;;;;5035101;28;20193;-67
2022/04/03 02:40:45;;;;;;;4.00;3.60;;;3.90;99.30;;;;;;5032649;28;20252;-67
2022/04/03 02:43:11;;;;;;;4.17;3.67;;;3.80;99.30;;;;;;5036384;28;20609;-68
2022/04/03 02:45:38;;;;;;;3.43;3.20;;;3.80;99.60;;;;;;5035943;28;20414;-67
2022/04/03 02:48:04;;;;;;;6.53;4.20;;;3.70;99.40;;;;;;5036927;28;21087;-68
2022/04/03 02:50:30;;;;;;;4.27;3.97;;;3.70;99.50;;;;;;5035674;28;20412;-68
2022/04/03 02:52:57;;;;;;;4.00;3.60;;;3.50;99.70;;;;;;5035554;28;20458;-67
2022/04/03 02:55:25;;;;;;;5.10;4.60;;;3.40;99.90;;;;;;5035838;28;20406;-67
2022/04/03 02:57:52;;;;;;;4.83;3.73;;;3.30;99.90;;;;;;5036977;28;20188;-67
2022/04/03 03:00:18;;;;;;;4.40;4.00;;;3.30;99.90;;;;;;5035212;28;20413;-68
2022/04/03 03:02:47;;;;;;;4.60;4.20;;;3.40;99.90;;;;;;5034413;28;20433;-68
2022/04/03 03:05:14;;;;;;;5.97;3.70;;;3.40;99.90;;;;;;5034757;28;20461;-68
2022/04/03 03:07:41;;;;;;;7.77;4.20;;;3.50;99.90;;;;;;5035720;28;20464;-68
2022/04/03 03:10:09;;;;;;;4.50;4.10;;;3.50;99.90;;;;;;5036814;28;20436;-68
2022/04/03 03:12:35;;;;;;;4.67;4.20;;;3.50;99.90;;;;;;5035675;28;20436;-68
2022/04/03 03:15:02;;;;;;;5.10;4.30;;;3.50;99.90;;;;;;5035303;28;20418;-68
2022/04/03 03:17:28;;;;;;;4.93;4.23;;;3.50;99.90;;;;;;5035814;28;20433;-68
2022/04/03 03:19:53;;;;;;;4.70;4.20;;;3.50;99.90;;;;;;5036107;28;20429;-67
2022/04/03 03:22:19;;;;;;;4.27;3.83;;;3.40;99.90;;;;;;5037521;28;20554;-67
2022/04/03 03:24:45;;;;;;;7.30;4.30;;;3.40;99.90;;;;;;5054972;28;20165;-68
2022/04/03 03:27:10;;;;;;;5.63;4.47;;;3.50;99.90;;;;;;5055483;28;20424;-68
2022/04/03 03:29:36;;;;;;;6.53;4.53;;;3.40;99.90;;;;;;5053166;28;20174;-68
2022/04/03 03:32:02;;;;;;;9.50;4.37;;;3.40;99.90;;;;;;5055174;28;20170;-67
2022/04/03 03:34:27;;;;;;;4.30;3.90;;;3.40;99.90;;;;;;5055131;28;20179;-68
2022/04/03 03:36:53;;;;;;;4.17;3.87;;;3.40;99.90;;;;;;5054851;28;20953;-68
2022/04/03 03:39:18;;;;;;;4.73;4.30;;;3.40;99.90;;;;;;5051805;28;20202;-68
2022/04/03 03:41:44;;;;;;;5.40;4.37;;;3.50;99.90;;;;;;5054605;28;20217;-67
2022/04/03 03:44:10;;;;;;;5.70;4.37;;;3.50;99.90;;;;;;5054466;28;20194;-67
2022/04/03 03:46:42;;;;;;;4.93;4.50;;;3.50;99.90;;;;;;5053103;28;20181;-68
2022/04/03 03:49:08;;;;;;;4.13;3.73;;;3.50;99.90;;;;;;5054012;28;20916;-67
2022/04/03 03:51:35;;;;;;;4.30;3.90;;;3.50;99.90;;;;;;5052580;28;20456;-68
2022/04/03 03:54:02;;;;;;;4.50;3.93;;;3.50;99.90;;;;;;5053257;28;20440;-67
2022/04/03 03:56:27;;;;;;;6.30;4.87;;;3.40;99.90;;;;;;5054419;28;20413;-67
2022/04/03 03:58:53;;;;;;;8.90;4.57;;;3.30;99.90;;;;;;5054113;28;20500;-67
2022/04/03 04:01:20;;;;;;;6.23;4.33;;;3.20;99.90;;;;;;5052399;28;20183;-67
2022/04/03 04:03:45;;;;;;;4.80;4.33;;;3.10;99.90;;;;;;5054044;28;20448;-68
2022/04/03 04:06:11;;;;;;;4.63;4.20;;;3.10;99.90;;;;;;5054240;28;20944;-67
2022/04/03 04:08:36;;;;;;;5.93;4.87;;;3.00;99.90;;;;;;5054020;28;20198;-68
2022/04/03 04:11:02;;;;;;;4.57;3.93;;;3.10;99.90;;;;;;5052142;28;20197;-68
2022/04/03 04:13:27;;;;;;;4.90;4.30;;;3.10;99.90;;;;;;5053334;28;20202;-67
2022/04/03 04:15:54;;;;;;;6.53;5.00;;;3.10;99.90;;;;;;5053669;28;20287;-67
2022/04/03 04:18:20;;;;;;;5.40;4.57;;;3.00;99.90;;;;;;5052791;28;20181;-67
2022/04/03 04:20:45;;;;;;;5.87;4.80;;;3.00;99.90;;;;;;5053584;28;20762;-68
2022/04/03 04:23:11;;;;;;;7.47;4.50;;;3.00;99.90;;;;;;5051956;28;20275;-68
2022/04/03 04:25:36;;;;;;;9.17;5.00;;;3.00;99.90;;;;;;5053611;28;20176;-69
2022/04/03 04:28:02;;;;;;;4.80;4.40;;;3.00;99.90;;;;;;5053708;28;20722;-68
2022/04/03 04:30:28;;;;;;;6.50;4.27;;;3.00;99.90;;;;;;5051984;28;20261;-68
2022/04/03 04:32:54;;;;;;;5.43;4.60;;;3.00;99.90;;;;;;5052181;28;20553;-67
2022/04/03 04:35:19;;;;;;;5.30;4.77;;;2.80;99.90;;;;;;5053724;28;20174;-69
2022/04/03 04:37:45;;;;;;;5.33;4.83;;;2.90;99.90;;;;;;5048360;28;20639;-68
2022/04/03 04:40:12;;;;;;;5.70;5.10;;;2.90;99.90;;;;;;5038908;28;20190;-69
2022/04/03 04:42:38;;;;;;;7.30;5.40;;;2.90;99.90;;;;;;5033285;28;20230;-67
2022/04/03 04:45:07;;;;;;;4.90;4.40;;;2.80;99.90;;;;;;5032078;28;20499;-68
2022/04/03 04:47:37;;;;;;;5.57;4.33;;;2.80;99.90;;;;;;5034421;28;20655;-68
2022/04/03 04:50:07;;;;;;;6.80;4.57;;;2.70;99.90;;;;;;5013319;28;20423;-68
2022/04/03 04:52:33;;;;;;;6.20;4.50;;;2.60;99.90;;;;;;5013438;28;20981;-68
2022/04/03 04:54:59;;;;;;;5.00;4.50;;;2.60;99.90;;;;;;5013503;28;20464;-68
2022/04/03 04:57:25;;;;;;;8.90;4.50;;;2.40;99.90;;;;;;5013264;28;20402;-68
2022/04/03 04:59:50;;;;;;;6.90;5.00;;;2.40;99.90;;;;;;5049053;28;20240;-68
2022/04/03 05:02:16;;;;;;;5.43;4.90;;;2.40;99.90;;;;;;5053027;28;20914;-68
2022/04/03 05:04:41;;;;;;;6.30;5.33;;;2.50;99.90;;;;;;5051672;28;20236;-68
2022/04/03 05:07:09;;;;;;;6.83;5.23;;;2.40;99.90;;;;;;5052893;28;20268;-68
2022/04/03 05:09:35;;;;;;;6.20;4.73;;;2.30;99.90;;;;;;5050858;28;20182;-68
2022/04/03 05:12:01;;;;;;;6.40;5.50;;;2.30;99.90;;;;;;5053095;28;20419;-68
2022/04/03 05:14:27;;;;;;;5.30;4.80;;;2.40;99.90;;;;;;5052938;28;20178;-68
2022/04/03 05:16:52;;;;;;;5.90;4.90;;;2.40;99.90;;;;;;5051184;28;20775;-68
2022/04/03 05:19:19;;;;;;;5.97;5.20;;;2.30;99.90;;;;;;5044700;28;20437;-68
2022/04/03 05:21:44;;;;;;;6.77;4.83;;;2.10;99.90;;;;;;5027346;28;20603;-69
2022/04/03 05:24:10;;;;;;;6.50;5.33;;;2.00;99.90;;;;;;5031749;28;20497;-68
2022/04/03 05:26:36;;;;;;;5.80;4.80;;;2.10;99.90;;;;;;5032637;28;20194;-68
2022/04/03 05:29:02;;;;;;;7.33;4.90;;;2.00;99.90;;;;;;5032450;28;20203;-72
2022/04/03 05:31:27;;;;;;;8.63;6.50;;;2.10;99.90;;;;;;5032725;28;20434;-70
2022/04/03 05:33:55;;;;;;;6.87;6.17;;;2.10;99.90;;;;;;5032387;28;20722;-68
2022/04/03 05:36:21;;;;;;;5.63;5.07;;;2.20;99.90;;;;;;5030822;28;20630;-68
2022/04/03 05:38:47;;;;;;;6.23;5.63;;;2.30;99.90;;;;;;5031938;28;20445;-68
2022/04/03 05:41:12;;;;;;;6.20;5.60;;;2.30;99.90;;;;;;5032878;28;20177;-68
2022/04/03 05:43:38;;;;;;;6.67;5.70;;;2.20;99.90;;;;;;5032364;28;20194;-68
2022/04/03 05:46:03;;;;;;;7.57;5.87;;;2.10;99.90;;;;;;5033260;28;20183;-68
2022/04/03 05:48:29;;;;;;;7.00;6.10;;;2.00;99.90;;;;;;5031534;28;20225;-70
2022/04/03 05:50:54;;;;;;;7.33;6.00;;;2.00;99.90;;;;;;5032535;28;20194;-68
2022/04/03 05:53:21;;;;;;;8.33;6.50;;;2.00;99.90;;;;;;5027502;28;20203;-69
2022/04/03 05:55:47;;;;;;;6.23;5.63;;;1.90;99.90;;;;;;5027557;28;20190;-71
2022/04/03 05:58:13;;;;;;;7.50;5.67;;;1.90;99.90;;;;;;5019211;28;20468;-68
2022/04/03 06:00:38;;;;;;;7.47;5.87;;;2.00;99.90;;;;;;5031780;28;20453;-68
2022/04/03 06:03:04;;;;;;;7.80;5.90;;;2.00;99.90;;;;;;5029581;28;21021;-68
2022/04/03 06:05:32;;;;;;;6.97;6.00;;;2.00;99.90;;;;;;5022877;28;20297;-67
2022/04/03 06:07:58;;;;;;;7.50;5.80;;;2.00;99.90;;;;;;5029531;28;20730;-67
2022/04/03 06:10:25;;;;;;;5.97;5.13;;;2.10;99.90;;;;;;5031332;28;20453;-67
2022/04/03 06:12:51;;;;;;;6.90;6.03;;;2.20;99.90;;;;;;5033060;28;20654;-66
2022/04/03 06:15:17;;;;;;;10.93;8.63;;;2.20;99.90;;;;;;5028298;28;20457;-67
2022/04/03 06:17:42;;;;;;;9.37;8.30;;;2.30;99.90;;;;;;5013060;28;20737;-67
2022/04/03 06:20:08;;;;;;;10.50;7.90;;;2.30;99.90;;;;;;5013696;28;20202;-67
2022/04/03 06:22:33;;;;;;;8.53;7.47;;;2.30;99.90;;;;;;5011258;28;20207;-67
2022/04/03 06:24:59;;;;;;;8.40;7.03;;;2.30;99.90;;;;;;5030847;28;20207;-68
2022/04/03 06:27:27;;;;;;;7.30;6.50;;;2.40;99.90;;;;;;5026541;28;20288;-68
2022/04/03 06:29:53;;;;;;;7.80;5.50;;;2.40;99.90;;;;;;5018849;28;20274;-67
2022/04/03 06:32:19;;;;;;;6.50;5.90;;;2.50;99.90;;;;;;5031680;28;20429;-68
2022/04/03 06:34:44;;;;;;;7.30;6.60;;;2.50;99.90;;;;;;5030987;28;20461;-68
2022/04/03 06:37:10;;;;;;;5.93;5.43;;;2.60;99.90;;;;;;5034842;28;20471;-68
2022/04/03 06:39:36;;;;;;;6.77;6.17;;;2.60;99.90;;;;;;5041769;28;20225;-67
2022/04/03 06:42:03;;;;;;;6.70;5.53;;;2.70;99.90;;;;;;5023982;28;20195;-68
2022/04/03 06:44:30;;;;;;;6.10;5.43;;;2.70;99.90;;;;;;5030809;28;20175;-68
2022/04/03 06:46:56;;;;;;;5.60;5.10;;;2.80;99.90;;;;;;5033720;28;20413;-68
2022/04/03 06:49:21;;;;;;;6.27;5.67;;;2.80;99.90;;;;;;5035763;28;20984;-68
2022/04/03 06:51:47;;;;;;;8.00;6.33;;;2.80;99.90;;;;;;5032987;28;20420;-68
2022/04/03 06:54:12;;;;;;;6.43;4.70;;;2.80;99.90;;;;;;5031266;28;20199;-67
2022/04/03 06:56:38;;;;;;;8.70;6.50;;;2.90;99.90;;;;;;5044080;28;20173;-68
2022/04/03 06:59:03;;;;;;;7.47;6.00;;;2.90;99.90;;;;;;5051331;28;20238;-66
2022/04/03 07:01:29;;;;;;;6.37;5.77;;;2.90;99.90;;;;;;5056470;28;20182;-68
2022/04/03 07:03:54;;;;;;;6.87;6.17;;;3.00;99.90;;;;;;5053861;28;20273;-68
2022/04/03 07:06:20;;;;;;;6.77;5.70;;;3.00;99.90;;;;;;5046489;28;20277;-69
2022/04/03 07:08:48;;;;;;;5.30;4.80;;;3.10;99.90;;;;;;5032206;28;20203;-69
2022/04/03 07:11:14;;;;;;;7.37;5.63;;;3.20;99.90;;;;;;5033802;28;20163;-69
2022/04/03 07:13:40;;;;;;;6.20;5.60;;;3.20;99.90;;;;;;5033108;28;20460;-68
2022/04/03 07:16:05;;;;;;;6.70;5.83;;;3.30;99.90;;;;;;5031258;28;20410;-68
2022/04/03 07:18:31;;;;;;;8.57;6.10;;;3.30;99.90;;;;;;5032173;28;20201;-68
2022/04/03 07:20:57;;;;;;;6.50;5.20;;;3.40;99.90;;;;;;5030395;28;20189;-68
2022/04/03 07:23:24;;;;;;;8.70;5.00;;;3.50;99.90;;;;;;5032171;28;20219;-69
2022/04/03 07:25:50;;;;;;;6.30;5.53;;;3.40;99.90;;;;;;5049069;28;20182;-68
2022/04/03 07:28:15;;;;;;;5.73;5.20;;;3.50;99.90;;;;;;5042167;28;20502;-69
2022/04/03 07:30:42;;;;;;;6.80;5.40;;;3.60;99.70;;;;;;5034189;28;20178;-68
2022/04/03 07:33:07;;;;;;;4.70;4.30;;;3.60;99.40;;;;;;5030211;28;20191;-68
2022/04/03 07:35:33;;;;;;;5.57;4.90;;;3.70;99.10;;;;;;5035286;28;20483;-68
2022/04/03 07:37:58;;;;;;;5.20;4.70;;;3.90;99.00;;;;;;5033811;28;20655;-68
2022/04/03 07:40:24;;;;;;;5.73;5.17;;;3.90;98.40;;;;;;5033414;28;20186;-67
2022/04/03 07:42:51;;;;;;;10.67;5.40;;;3.90;98.10;;;;;;5032189;28;20201;-68
2022/04/03 07:45:17;;;;;;;5.90;5.10;;;4.00;98.10;;;;;;5041537;28;20672;-68
2022/04/03 07:47:50;;;;;;;5.57;4.90;;;4.10;98.00;;;;;;5042379;28;20461;-67
2022/04/03 07:50:18;;;;;;;5.90;5.17;;;4.20;97.80;;;;;;5031166;28;20171;-68
2022/04/03 07:52:45;;;;;;;6.83;5.10;;;4.30;97.80;;;;;;5023711;28;20461;-67
2022/04/03 07:55:11;;;;;;;4.97;4.43;;;4.30;96.70;;;;;;5028822;28;20538;-67
2022/04/03 07:57:40;;;;;;;8.63;5.10;;;4.40;96.70;;;;;;5029800;28;21257;-66
2022/04/03 08:00:08;;;;;;;4.63;4.00;;;4.50;96.40;;;;;;5029238;28;21076;-67
2022/04/03 08:02:35;;;;;;;4.23;3.73;;;4.60;96.50;;;;;;5029292;28;20445;-67
2022/04/03 08:05:01;;;;;;;2.93;2.73;;;4.60;96.00;;;;;;5029556;28;20414;-67
2022/04/03 08:07:44;;;;;;;4.80;3.00;;;4.30;95.20;;;;;;5028356;28;20477;-67
2022/04/03 08:10:13;;;;;;;3.33;2.93;;;4.20;95.80;;;;;;5029422;28;20262;-67
2022/04/03 08:12:40;;;;;;;5.10;2.30;;;4.10;95.80;;;;;;5029183;28;20447;-67
2022/04/03 08:15:07;;;;;;;4.17;2.43;;;4.20;95.70;;;;;;5029517;28;20416;-67
2022/04/03 08:17:34;;;;;;;3.10;2.80;;;4.20;94.80;;;;;;5030574;28;20519;-68
2022/04/03 08:20:01;;;;;;;3.47;3.13;;;4.10;94.30;;;;;;5029193;28;20417;-67
2022/04/03 08:22:27;;;;;;;5.87;2.57;;;4.20;94.80;;;;;;5029203;28;20452;-67
2022/04/03 08:24:53;;;;;;;3.10;2.80;;;4.20;94.20;;;;;;5029616;28;20756;-68
2022/04/03 08:27:18;;;;;;;3.70;2.47;;;4.20;94.00;;;;;;5033104;28;20189;-68
2022/04/03 08:29:44;;;;;;;3.17;2.17;;;4.30;94.00;;;;;;5032074;28;20717;-68
2022/04/03 08:32:10;;;;;;;3.50;2.60;;;4.30;94.00;;;;;;5031579;28;20614;-67
2022/04/03 08:34:36;;;;;;;3.80;3.00;;;4.50;93.60;;;;;;5033343;28;20487;-67
2022/04/03 08:37:01;;;;;;;5.73;3.30;;;4.50;93.10;;;;;;5032118;28;20221;-67
2022/04/03 08:39:27;;;;;;;3.67;2.90;;;4.50;93.50;;;;;;5030896;28;20436;-68
2022/04/03 08:41:54;;;;;;;4.20;3.40;;;4.60;92.60;;;;;;5033121;28;20172;-68
2022/04/03 08:44:19;;;;;;;3.70;3.40;;;4.70;92.90;;;;;;5031930;28;20196;-68
2022/04/03 08:46:49;;;;;;;6.33;3.20;;;4.90;90.40;;;;;;5033155;28;20498;-67
2022/04/03 08:49:19;;;;;;;5.20;2.80;;;4.80;88.90;;;;;;5040707;28;20195;-68
2022/04/03 08:51:46;;;;;;;2.77;2.53;;;4.80;90.00;;;;;;5052783;28;20445;-67
2022/04/03 08:54:12;;;;;;;2.97;2.70;;;4.80;90.40;;;;;;5052446;28;20429;-67
2022/04/03 08:56:38;;;;;;;3.77;2.80;;;4.90;90.30;;;;;;5051265;28;20453;-67
2022/04/03 08:59:03;;;;;;;3.13;2.83;;;5.10;90.40;;;;;;5050669;28;20464;-65
2022/04/03 09:01:29;;;;;;;4.53;3.10;;;5.10;88.00;;;;;;5052677;28;20184;-69
2022/04/03 09:03:55;;;;;;;4.47;3.17;;;5.20;88.20;;;;;;5052244;28;20600;-69
2022/04/03 09:06:24;;;;;;;3.10;2.90;;;5.50;89.30;;;;;;5034917;28;20456;-67
2022/04/03 09:08:49;;;;;;;2.90;2.60;;;6.00;88.90;;;;;;5032672;28;20569;-67
2022/04/03 09:11:16;;;;;;;3.37;2.80;;;6.00;80.60;;;;;;5033156;28;20433;-70
2022/04/03 09:13:43;;;;;;;2.50;2.30;;;6.00;80.40;;;;;;5032996;28;20195;-69
2022/04/03 09:16:09;;;;;;;2.67;2.47;;;6.30;81.00;;;;;;5033475;28;20412;-69
2022/04/03 09:18:49;;;;;;;2.70;2.50;;;6.60;79.30;;;;;;5034038;28;20466;-67
2022/04/03 09:21:20;;;;;;;3.70;2.83;;;6.90;79.20;;;;;;5034307;28;20471;-67
2022/04/03 09:24:15;;;;;;;2.93;2.73;;;6.70;77.30;;;;;;5031800;28;20468;-67
2022/04/03 09:26:42;;;;;;;3.00;2.80;;;6.40;77.60;;;;;;4971006;28;20431;-67
2022/04/03 09:29:12;;;;;;;3.50;3.20;;;6.20;79.50;;;;;;4970618;28;20494;-67
2022/04/03 09:31:39;;;;;;;3.90;3.50;;;6.00;80.70;;;;;;4971116;28;20456;-68
2022/04/03 09:34:06;;;;;;;3.83;3.53;;;5.90;81.30;;;;;;4954550;28;20474;-68
2022/04/03 09:36:34;;;;;;;2.97;2.77;;;6.10;81.30;;;;;;4954615;28;20452;-68
2022/04/03 09:39:07;;;;;;;3.63;3.33;;;6.30;80.80;;;;;;4970044;28;20443;-67
2022/04/03 09:41:34;;;;;;;3.50;3.23;;;6.20;79.30;;;;;;4955575;28;20440;-68
2022/04/03 09:44:13;;;;;;;3.83;3.40;;;6.10;79.10;;;;;;4971005;28;20447;-68
2022/04/03 09:46:39;;;;;;;4.77;3.50;;;6.00;78.50;;;;;;4970924;28;20420;-68
2022/04/03 09:49:22;;;;;;;3.33;2.93;;;6.10;78.70;;;;;;4970469;28;20473;-67
2022/04/03 09:51:47;;;;;;;3.07;2.87;;;6.00;77.80;;;;;;4969948;28;20581;-69
2022/04/03 09:54:17;;;;;;;3.90;3.50;;;6.10;77.60;;;;;;4971654;28;20575;-69
2022/04/03 09:56:43;;;;;;;5.20;3.33;;;6.10;76.80;;;;;;4969391;28;20189;-69
2022/04/03 09:59:09;;;;;;;4.00;3.17;;;6.30;76.00;;;;;;4966703;28;20425;-66
2022/04/03 10:01:40;;;;;;;3.20;2.93;;;6.30;75.20;;;;;;4952695;28;20258;-67
2022/04/03 10:04:14;;;;;;;3.30;3.07;;;6.10;75.90;;;;;;5025459;28;20464;-68
2022/04/03 10:06:41;;;;;;;3.07;2.63;;;6.10;76.20;;;;;;5031452;28;20561;-67
2022/04/03 10:09:11;;;;;;;6.23;3.13;;;5.90;75.10;;;;;;5031194;28;20452;-66
2022/04/03 10:11:40;;;;;;;2.50;2.30;;;5.80;74.80;;;;;;5031275;28;20449;-68
2022/04/03 10:14:06;;;;;;;4.73;3.27;;;6.00;75.80;;;;;;5032611;28;20444;-69
2022/04/03 10:16:32;;;;;;;4.53;3.20;;;6.00;76.00;;;;;;5031332;28;20402;-68
2022/04/03 10:18:58;;;;;;;3.00;2.67;;;6.00;75.60;;;;;;5031354;28;20420;-67
2022/04/03 10:21:40;;;;;;;4.63;2.93;;;6.10;75.00;;;;;;5031477;28;20726;-67
2022/04/03 10:24:16;;;;;;;3.10;2.80;;;6.00;75.00;;;;;;5031834;28;20211;-69
2022/04/03 10:26:46;;;;;;;3.33;2.60;;;6.20;73.80;;;;;;5031270;28;20432;-67
2022/04/03 10:29:13;;;;;;;2.93;2.37;;;6.50;73.20;;;;;;5011620;28;20504;-67
2022/04/03 10:31:40;;;;;;;6.00;3.00;;;6.50;71.70;;;;;;5011696;28;20489;-67
2022/04/03 10:34:06;;;;;;;4.80;2.37;;;6.30;71.10;;;;;;5011269;28;20426;-67
2022/04/03 10:36:33;;;;;;;5.17;2.30;;;6.30;70.80;;;;;;5038876;28;20940;-67
2022/04/03 10:39:09;;;;;;;2.40;2.13;;;6.30;70.60;;;;;;5050748;28;20420;-68
2022/04/03 10:41:36;;;;;;;2.33;2.13;;;6.60;71.70;;;;;;5049488;28;20405;-67
2022/04/03 10:44:15;;;;;;;3.33;2.27;;;6.80;70.90;;;;;;5050660;28;20432;-67
2022/04/03 10:47:06;;;;;;;3.23;2.13;;;6.60;70.90;;;;;;5050909;28;20400;-68
2022/04/03 10:49:41;;;;;;;3.33;2.37;;;6.60;71.40;;;;;;5010975;28;20470;-67
2022/04/03 10:52:09;;;;;;;2.83;2.40;;;6.50;72.60;;;;;;5011403;28;21231;-67
2022/04/03 10:54:50;;;;;;;3.80;2.57;;;6.60;74.10;;;;;;5011346;28;20410;-67
2022/04/03 10:57:41;;;;;;;2.67;2.40;;;6.50;73.40;;;;;;5011265;28;20422;-68
2022/04/03 11:00:12;;;;;;;2.60;2.40;;;6.60;72.70;;;;;;5010688;28;20903;-68
2022/04/03 11:02:38;;;;;;;5.10;3.10;;;6.80;72.50;;;;;;5013339;28;20831;-67
2022/04/03 11:05:22;;;;;;;4.37;3.60;;;7.10;73.40;;;;;;5015078;28;20869;-68
2022/04/03 11:07:59;;;;;;;4.43;3.93;;;7.30;73.60;;;;;;5014499;28;20489;-68
2022/04/03 11:10:52;;;;;;;5.07;4.43;;;7.30;73.40;;;;;;5030310;28;20463;-67
2022/04/03 11:13:21;;;;;;;5.00;4.50;;;6.90;75.40;;;;;;5023094;28;20547;-67
2022/04/03 11:16:02;;;;;;;4.70;4.30;;;6.90;77.10;;;;;;5034190;28;20494;-67
2022/04/03 11:19:02;;;;;;;6.40;3.93;;;6.50;79.00;;;;;;5034175;28;20453;-68
2022/04/03 11:21:30;;;;;;;5.87;5.30;;;6.40;80.90;;;;;;5023886;28;20473;-67
2022/04/03 11:24:06;;;;;;;5.67;4.60;;;6.50;80.00;;;;;;5032351;28;21073;-68
2022/04/03 11:26:34;;;;;;;5.90;4.47;;;6.20;80.90;;;;;;5013761;28;20549;-66
2022/04/03 11:29:01;;;;;;;5.00;4.43;;;6.10;81.60;;;;;;5031856;28;20493;-67
2022/04/03 11:31:27;;;;;;;7.17;4.93;;;6.10;81.90;;;;;;5049060;28;20601;-67
2022/04/03 11:33:53;;;;;;;4.70;4.30;;;6.40;82.10;;;;;;5039150;28;20955;-68
2022/04/03 11:36:32;;;;;;;6.27;3.40;;;6.60;81.60;;;;;;5054065;22;20507;-69
2022/04/03 11:39:00;;;;;;;4.43;3.70;;;6.40;80.50;;;;;;5024261;28;20247;-69
2022/04/03 11:41:34;;;;;;;4.53;3.67;;;6.30;81.40;;;;;;5027092;28;20914;-69
2022/04/03 11:44:00;;;;;;;4.07;3.67;;;6.40;82.00;;;;;;5033902;28;20938;-69
2022/04/03 11:46:28;;;;;;;3.07;2.60;;;6.60;82.10;;;;;;5038065;28;20519;-69
2022/04/03 11:48:53;;;;;;;6.80;2.60;;;6.60;82.20;;;;;;5054945;28;20491;-69
2022/04/03 11:51:20;;;;;;;4.67;3.40;;;6.30;83.60;;;;;;5050552;28;20445;-70
2022/04/03 11:53:55;;;;;;;5.63;3.17;;;6.10;84.40;;;;;;5045444;28;20254;-68
2022/04/03 11:56:21;;;;;;;4.60;2.73;;;6.10;85.10;;;;;;5053612;28;20482;-70
2022/04/03 11:58:48;;;;;;;2.57;2.37;;;6.30;87.00;;;;;;5054452;28;20423;-69
2022/04/03 12:01:24;;;;;;;4.10;2.97;;;6.60;86.30;;;;;;5054710;28;20464;-69
2022/04/03 12:03:59;;;;;;;3.23;2.57;;;6.80;87.90;;;;;;5070016;28;20447;-69
2022/04/03 12:06:24;;;;;;;2.83;2.57;;;7.20;90.30;;;;;;5078132;28;20451;-69
2022/04/03 12:08:50;;;;;;;4.40;2.73;;;7.50;88.20;;;;;;5079896;28;20484;-69
2022/04/03 12:11:27;;;;;;;2.80;2.60;;;7.50;83.80;;;;;;5072590;28;20170;-69
2022/04/03 12:13:57;;;;;;;3.20;2.63;;;7.60;83.30;;;;;;5070929;28;20670;-69
2022/04/03 12:16:34;;;;;;;3.43;2.70;;;7.60;82.90;;;;;;5056589;28;20429;-70
2022/04/03 12:19:05;;;;;;;4.10;2.80;;;7.60;82.80;;;;;;5054101;28;20772;-69
2022/04/03 12:21:43;;;;;;;3.60;2.87;;;7.60;84.30;;;;;;5054869;28;20974;-70
2022/04/03 12:24:10;;;;;;;3.20;2.90;;;7.70;84.30;;;;;;5053335;28;20557;-69
2022/04/03 12:26:37;;;;;;;3.13;2.43;;;7.80;82.00;;;;;;5054553;28;20808;-69
2022/04/03 12:29:07;;;;;;;3.50;2.80;;;7.50;82.00;;;;;;5054412;28;20452;-67
2022/04/03 12:31:34;;;;;;;3.30;3.00;;;7.40;83.40;;;;;;5053829;28;20412;-70
2022/04/03 12:34:15;;;;;;;3.57;3.00;;;7.60;82.50;;;;;;5052190;28;20460;-69
2022/04/03 12:36:44;;;;;;;3.30;3.00;;;7.50;81.10;;;;;;5050696;28;20874;-69
2022/04/03 12:39:39;;;;;;;4.87;2.90;;;7.70;83.70;;;;;;5053430;28;20917;-70
2022/04/03 12:42:29;;;;;;;3.37;3.07;;;8.10;84.30;;;;;;5053903;28;20747;-70
2022/04/03 12:45:21;;;;;;;5.60;3.30;;;8.40;82.20;;;;;;5053314;28;20412;-70
2022/04/03 12:47:55;;;;;;;4.90;3.40;;;8.60;81.50;;;;;;5052162;28;20509;-71
2022/04/03 12:50:24;;;;;;;6.40;3.27;;;8.80;81.40;;;;;;5054982;28;20491;-71
2022/04/03 12:52:52;;;;;;;3.10;2.80;;;8.50;78.70;;;;;;5054633;28;20416;-69
2022/04/03 12:55:21;;;;;;;3.70;3.27;;;8.50;79.20;;;;;;5054987;28;20413;-70
2022/04/03 13:00:45;;;;;;;3.40;3.10;;;8.30;79.40;;;;;;5054379;28;20467;-70
2022/04/03 13:03:21;;;;;;;3.27;3.07;;;8.30;78.50;;;;;;5054560;28;20785;-71